Time;durP1;ratioP1;P1;durP2;ratioP2;P2;SDS_P1;SDS_P2;PMS_P1;PMS_P2;Temp;Humidity;BMP_temperature;BMP_pressure;BME280_temperature;BME280_humidity;BME280_pressure;Samples;Min_cycle;Max_cycle;Signal;HPM_P1;HPM_P2
2023/06/12 00:00:51;;;;;;;;;;;;;;;21.04;70.51;96439.56;618788;229;63053;-60
2023/06/12 00:03:19;;;;;;;;;;;;;;;21.05;70.55;96441.15;618761;229;67299;-61
2023/06/12 00:05:47;;;;;;;;;;;;;;;21.04;70.54;96439.56;618812;229;64729;-60
2023/06/12 00:08:17;;;;;;;;;;;;;;;21.05;70.55;96445.70;618840;229;62976;-61
2023/06/12 00:10:46;;;;;;;;;;;;;;;21.04;70.55;96450.25;618817;229;64875;-61
2023/06/12 00:13:13;;;;;;;;;;;;;;;21.05;70.56;96446.48;617183;228;65353;-61
2023/06/12 00:15:41;;;;;;;;;;;;;;;21.04;70.57;96444.91;615408;230;62911;-61
2023/06/12 00:18:08;;;;;;;;;;;;;;;21.05;70.56;96451.83;615420;230;65003;-61
2023/06/12 00:20:36;;;;;;;;;;;;;;;21.05;70.55;96451.83;615416;230;64936;-61
2023/06/12 00:23:03;;;;;;;;;;;;;;;21.05;70.56;96451.05;615376;230;62641;-60
2023/06/12 00:25:31;;;;;;;;;;;;;;;21.04;70.55;96450.25;615418;230;65122;-61
2023/06/12 00:27:58;;;;;;;;;;;;;;;21.04;70.60;96452.13;615402;230;64946;-61
2023/06/12 00:30:26;;;;;;;;;;;;;;;21.05;70.54;96448.38;615412;230;62881;-61
2023/06/12 00:32:53;;;;;;;;;;;;;;;21.04;70.57;96452.13;615408;230;64653;-61
2023/06/12 00:35:21;;;;;;;;;;;;;;;21.05;70.56;96453.72;615489;230;65855;-61
2023/06/12 00:37:50;;;;;;;;;;;;;;;21.04;70.56;96446.80;615402;230;63007;-61
2023/06/12 00:40:17;;;;;;;;;;;;;;;21.04;70.55;96449.47;615405;230;67473;-61
2023/06/12 00:42:49;;;;;;;;;;;;;;;21.04;70.56;96455.59;615376;230;66957;-60
2023/06/12 00:45:17;;;;;;;;;;;;;;;21.03;70.54;96448.67;615416;230;63011;-61
2023/06/12 00:47:56;;;;;;;;;;;;;;;21.04;70.55;96447.58;615478;230;67233;-61
2023/06/12 00:50:27;;;;;;;;;;;;;;;21.03;70.54;96448.67;615401;230;67631;-60
2023/06/12 00:52:55;;;;;;;;;;;;;;;21.04;70.53;96450.25;615413;230;63107;-60
2023/06/12 00:55:23;;;;;;;;;;;;;;;21.04;70.55;96460.15;615409;230;67165;-61
2023/06/12 00:57:51;;;;;;;;;;;;;;;21.03;70.56;96462.03;615419;230;67885;-61
2023/06/12 01:00:19;;;;;;;;;;;;;;;21.04;70.57;96462.82;615456;230;65182;-61
2023/06/12 01:02:52;;;;;;;;;;;;;;;21.03;70.56;96455.87;615432;230;67825;-60
2023/06/12 01:05:32;;;;;;;;;;;;;;;21.02;70.57;96452.41;615350;230;67064;-61
2023/06/12 01:07:55;;;;;;;;;;;;;;;21.02;70.57;96447.06;615056;230;62974;-60
2023/06/12 01:10:30;;;;;;;;;;;;;;;21.02;70.56;96455.08;615435;228;68168;-61
2023/06/12 01:13:00;;;;;;;;;;;;;;;21.03;70.56;96462.03;615191;229;66913;-61
2023/06/12 01:15:27;;;;;;;;;;;;;;;21.03;70.55;96459.36;615464;230;65690;-61
2023/06/12 01:17:58;;;;;;;;;;;;;;;21.03;70.56;96470.05;615438;230;64775;-60
2023/06/12 01:20:24;;;;;;;;;;;;;;;21.03;70.53;96464.70;609289;230;65797;-60
2023/06/12 01:22:53;;;;;;;;;;;;;;;21.02;70.56;96463.09;615405;230;62828;-60
2023/06/12 01:25:25;;;;;;;;;;;;;;;21.03;70.56;96467.38;615406;229;67923;-61
2023/06/12 01:27:55;;;;;;;;;;;;;;;21.02;70.55;96463.09;615005;230;67304;-60
2023/06/12 01:30:43;;;;;;;;;;;;;;;21.02;70.54;96465.77;614305;230;64953;-60
2023/06/12 01:33:12;;;;;;;;;;;;;;;21.03;70.54;96477.23;615392;230;67255;-60
2023/06/12 01:35:43;;;;;;;;;;;;;;;21.02;70.51;96478.33;615428;230;67042;-60
2023/06/12 01:38:12;;;;;;;;;;;;;;;21.02;70.57;96481.80;615399;230;64857;-60
2023/06/12 01:40:40;;;;;;;;;;;;;;;21.02;70.56;96479.13;615349;230;67385;-60
2023/06/12 01:43:07;;;;;;;;;;;;;;;21.02;70.56;96489.02;615404;230;67810;-60
2023/06/12 01:45:37;;;;;;;;;;;;;;;21.02;70.56;96492.48;615498;230;44229;-60
2023/06/12 01:48:05;;;;;;;;;;;;;;;21.02;70.57;96487.13;615430;230;66715;-61
2023/06/12 01:50:33;;;;;;;;;;;;;;;21.02;70.58;96495.15;615395;230;64880;-60
2023/06/12 01:53:02;;;;;;;;;;;;;;;21.02;70.58;96483.67;615378;230;65987;-60
2023/06/12 01:55:30;;;;;;;;;;;;;;;21.01;70.58;96488.23;615419;230;65272;-60
2023/06/12 01:57:58;;;;;;;;;;;;;;;21.02;70.56;96497.82;615421;230;67683;-60
2023/06/12 02:00:30;;;;;;;;;;;;;;;21.02;70.55;96491.69;614731;230;42460;-60
2023/06/12 02:02:58;;;;;;;;;;;;;;;21.02;70.56;96503.16;615410;230;64806;-60
2023/06/12 02:05:27;;;;;;;;;;;;;;;21.02;70.57;96503.16;615337;230;48622;-61
2023/06/12 02:07:55;;;;;;;;;;;;;;;21.02;70.56;96499.70;615403;230;65234;-62
2023/06/12 02:10:23;;;;;;;;;;;;;;;21.02;70.56;96494.36;615424;230;64562;-61
2023/06/12 02:12:51;;;;;;;;;;;;;;;21.01;70.58;96498.91;616220;229;64936;-60
2023/06/12 02:15:20;;;;;;;;;;;;;;;21.01;70.58;96496.24;618782;229;65722;-61
2023/06/12 02:17:48;;;;;;;;;;;;;;;21.01;70.57;96490.89;618769;229;65033;-61
2023/06/12 02:20:15;;;;;;;;;;;;;;;21.01;70.56;96492.78;618770;229;64850;-61
2023/06/12 02:22:43;;;;;;;;;;;;;;;21.01;70.54;96492.78;618824;229;65075;-61
2023/06/12 02:25:10;;;;;;;;;;;;;;;21.00;70.53;96497.30;618814;229;67195;-61
2023/06/12 02:27:38;;;;;;;;;;;;;;;21.00;70.52;96496.52;618793;229;64576;-60
2023/06/12 02:30:06;;;;;;;;;;;;;;;21.00;70.51;96496.52;618781;229;64804;-60
2023/06/12 02:32:35;;;;;;;;;;;;;;;21.01;70.54;96504.25;618757;229;67137;-60
2023/06/12 02:35:02;;;;;;;;;;;;;;;21.00;70.53;96497.30;618832;229;64462;-60
2023/06/12 02:37:31;;;;;;;;;;;;;;;21.01;70.51;96496.24;618813;229;65721;-60
2023/06/12 02:39:59;;;;;;;;;;;;;;;21.01;70.52;96500.80;618754;229;64835;-61
2023/06/12 02:42:27;;;;;;;;;;;;;;;21.01;70.51;96495.45;618762;229;67810;-61
2023/06/12 02:44:54;;;;;;;;;;;;;;;21.01;70.51;96500.80;618764;229;65034;-61
2023/06/12 02:47:22;;;;;;;;;;;;;;;21.00;70.51;96496.52;618786;229;67828;-61
2023/06/12 02:49:50;;;;;;;;;;;;;;;21.00;70.49;96502.64;618807;229;65102;-61
2023/06/12 02:52:22;;;;;;;;;;;;;;;21.00;70.50;96497.30;618800;228;43868;-61
2023/06/12 02:54:49;;;;;;;;;;;;;;;21.00;70.51;96499.18;618767;229;67369;-61
2023/06/12 02:57:17;;;;;;;;;;;;;;;21.00;70.50;96505.31;618838;229;67594;-61
2023/06/12 02:59:45;;;;;;;;;;;;;;;21.00;70.53;96502.64;618862;229;66069;-61
2023/06/12 03:02:14;;;;;;;;;;;;;;;21.00;70.50;96507.98;618606;229;44345;-61
2023/06/12 03:04:44;;;;;;;;;;;;;;;21.00;70.51;96505.31;618817;229;44033;-61
2023/06/12 03:07:15;;;;;;;;;;;;;;;21.00;70.54;96507.98;618863;227;62391;-60
2023/06/12 03:09:42;;;;;;;;;;;;;;;21.01;70.54;96511.48;618854;229;67964;-61
2023/06/12 03:12:10;;;;;;;;;;;;;;;21.01;70.55;96512.27;618884;229;66823;-61
2023/06/12 03:14:38;;;;;;;;;;;;;;;20.99;70.54;96511.75;615415;229;64920;-61
2023/06/12 03:17:06;;;;;;;;;;;;;;;21.01;70.51;96506.13;615266;230;66959;-61
2023/06/12 03:19:35;;;;;;;;;;;;;;;20.98;70.50;96504.83;615497;230;64948;-61
2023/06/12 03:22:02;;;;;;;;;;;;;;;21.00;70.49;96507.20;615458;230;65194;-61
2023/06/12 03:24:30;;;;;;;;;;;;;;;21.00;70.50;96504.52;614817;230;67147;-61
2023/06/12 03:27:03;;;;;;;;;;;;;;;21.00;70.53;96499.97;615421;230;64543;-61
2023/06/12 03:29:29;;;;;;;;;;;;;;;21.00;70.51;96501.85;615405;230;65675;-60
2023/06/12 03:31:57;;;;;;;;;;;;;;;20.98;70.49;96502.16;615381;230;64879;-60
2023/06/12 03:34:26;;;;;;;;;;;;;;;20.98;70.47;96504.83;609382;230;65973;-60
2023/06/12 03:36:54;;;;;;;;;;;;;;;20.99;70.51;96513.62;615425;230;62523;-60
2023/06/12 03:39:24;;;;;;;;;;;;;;;20.99;70.53;96505.61;615383;230;45608;-61
2023/06/12 03:41:53;;;;;;;;;;;;;;;20.99;70.53;96503.73;615489;230;67098;-61
2023/06/12 03:44:21;;;;;;;;;;;;;;;20.99;70.53;96505.61;615458;230;64095;-61
2023/06/12 03:46:49;;;;;;;;;;;;;;;20.98;70.51;96510.17;615433;228;67735;-60
2023/06/12 03:49:17;;;;;;;;;;;;;;;20.98;70.54;96507.49;615456;230;66877;-61
2023/06/12 03:51:44;;;;;;;;;;;;;;;20.98;70.55;96499.48;615409;230;65642;-61
2023/06/12 03:54:13;;;;;;;;;;;;;;;20.98;70.56;96507.49;615424;230;67080;-61
2023/06/12 03:56:41;;;;;;;;;;;;;;;20.98;70.54;96504.00;615436;230;65146;-61
2023/06/12 03:59:09;;;;;;;;;;;;;;;20.98;70.53;96501.33;615396;228;65763;-61
2023/06/12 04:01:38;;;;;;;;;;;;;;;20.98;70.55;96501.33;615409;230;67989;-61
2023/06/12 04:04:06;;;;;;;;;;;;;;;20.98;70.55;96501.33;615425;228;66926;-61
2023/06/12 04:06:40;;;;;;;;;;;;;;;20.97;70.54;96508.55;615419;230;62624;-61
2023/06/12 04:09:03;;;;;;;;;;;;;;;20.97;70.54;96508.55;615247;228;64820;-62
2023/06/12 04:11:32;;;;;;;;;;;;;;;20.98;70.52;96507.49;615360;230;67603;-61
2023/06/12 04:14:00;;;;;;;;;;;;;;;20.98;70.53;96504.00;617876;229;64905;-63
2023/06/12 04:16:27;;;;;;;;;;;;;;;20.98;70.55;96504.00;618806;227;66694;-62
2023/06/12 04:18:56;;;;;;;;;;;;;;;20.98;70.52;96504.83;618789;229;67392;-62
2023/06/12 04:21:24;;;;;;;;;;;;;;;20.97;70.50;96508.55;618828;229;64898;-62
2023/06/12 04:23:53;;;;;;;;;;;;;;;20.97;70.49;96499.75;618787;229;67612;-62
2023/06/12 04:26:20;;;;;;;;;;;;;;;20.97;70.53;96503.21;618783;229;64757;-61
2023/06/12 04:28:49;;;;;;;;;;;;;;;20.97;70.53;96505.88;618785;229;65038;-62
2023/06/12 04:31:16;;;;;;;;;;;;;;;20.97;70.52;96505.09;618808;229;67061;-62
2023/06/12 04:33:44;;;;;;;;;;;;;;;20.97;70.53;96503.21;618822;229;64860;-62
2023/06/12 04:36:13;;;;;;;;;;;;;;;20.97;70.52;96508.55;618801;229;62741;-61
2023/06/12 04:38:41;;;;;;;;;;;;;;;20.97;70.53;96505.09;618811;229;67250;-62
2023/06/12 04:41:09;;;;;;;;;;;;;;;20.96;70.54;96504.30;618809;229;64682;-62
2023/06/12 04:43:38;;;;;;;;;;;;;;;20.97;70.54;96502.42;618771;229;65001;-62
2023/06/12 04:46:07;;;;;;;;;;;;;;;20.97;70.55;96503.21;618719;228;64625;-61
2023/06/12 04:48:36;;;;;;;;;;;;;;;20.97;70.53;96502.42;618820;229;66969;-61
2023/06/12 04:51:04;;;;;;;;;;;;;;;20.97;70.54;96505.09;618778;229;63661;-61
2023/06/12 04:53:32;;;;;;;;;;;;;;;20.97;70.55;96502.42;618797;229;67196;-62
2023/06/12 04:56:00;;;;;;;;;;;;;;;20.97;70.54;96503.21;618806;229;64552;-61
2023/06/12 04:58:28;;;;;;;;;;;;;;;20.96;70.54;96506.97;618774;229;65098;-61
2023/06/12 05:00:56;;;;;;;;;;;;;;;20.96;70.53;96506.97;618849;229;65085;-62
2023/06/12 05:03:23;;;;;;;;;;;;;;;20.97;70.54;96510.44;618751;229;66854;-62
2023/06/12 05:05:52;;;;;;;;;;;;;;;20.96;70.57;96501.63;618806;229;62768;-62
2023/06/12 05:08:22;;;;;;;;;;;;;;;20.96;70.58;96506.97;618776;229;67177;-62
2023/06/12 05:10:51;;;;;;;;;;;;;;;20.96;70.55;96504.30;618782;229;67386;-62
2023/06/12 05:13:19;;;;;;;;;;;;;;;20.96;70.59;96506.19;613064;229;65052;-61
2023/06/12 05:15:47;;;;;;;;;;;;;;;20.96;70.57;96514.20;619534;229;67134;-61
2023/06/12 05:18:17;;;;;;;;;;;;;;;20.96;70.60;96506.97;619621;228;49645;-61
2023/06/12 05:20:44;;;;;;;;;;;;;;;20.96;70.62;96509.64;619472;229;65202;-62
2023/06/12 05:23:12;;;;;;;;;;;;;;;20.96;70.61;96508.86;619488;229;67126;-62
2023/06/12 05:25:40;;;;;;;;;;;;;;;20.96;70.58;96501.63;619533;229;65111;-62
2023/06/12 05:28:08;;;;;;;;;;;;;;;20.95;70.51;96505.39;619556;229;62565;-61
2023/06/12 05:30:36;;;;;;;;;;;;;;;20.95;71.30;96505.39;619475;229;67630;-61
2023/06/12 05:33:05;;;;;;;;;;;;;;;20.94;72.90;96498.44;619596;228;44130;-60
2023/06/12 05:35:34;;;;;;;;;;;;;;;20.93;72.43;96504.88;618816;229;63078;-60
2023/06/12 05:38:01;;;;;;;;;;;;;;;20.93;73.36;96507.55;619506;229;67290;-60
2023/06/12 05:40:29;;;;;;;;;;;;;;;20.92;72.43;96499.80;619569;229;67441;-59
2023/06/12 05:42:59;;;;;;;;;;;;;;;20.91;72.50;96504.34;619318;229;65581;-59
2023/06/12 05:45:26;;;;;;;;;;;;;;;20.91;73.10;96507.02;619325;229;67810;-59
2023/06/12 05:47:54;;;;;;;;;;;;;;;20.91;72.69;96498.22;619497;229;64959;-59
2023/06/12 05:50:21;;;;;;;;;;;;;;;20.91;72.99;96501.68;625366;226;64902;-59
2023/06/12 05:52:50;;;;;;;;;;;;;;;20.92;74.64;96497.92;626705;226;64750;-59
2023/06/12 05:55:17;;;;;;;;;;;;;;;20.91;72.95;96495.55;626536;226;67780;-59
2023/06/12 05:57:45;;;;;;;;;;;;;;;20.91;75.05;96493.66;626619;226;65044;-59
2023/06/12 06:00:13;;;;;;;;;;;;;;;20.90;73.73;96493.94;626556;226;67951;-59
2023/06/12 06:02:43;;;;;;;;;;;;;;;20.89;74.10;96495.81;626715;226;37808;-59
2023/06/12 06:05:13;;;;;;;;;;;;;;;20.89;73.66;96495.81;626480;225;46988;-59
2023/06/12 06:07:40;;;;;;;;;;;;;;;20.91;75.12;96495.55;626658;226;67655;-61
2023/06/12 06:10:10;;;;;;;;;;;;;;;20.89;74.28;96489.68;626565;226;67120;-60
2023/06/12 06:12:39;;;;;;;;;;;;;;;20.87;71.03;96487.31;625925;225;47899;-60
2023/06/12 06:15:08;;;;;;;;;;;;;;;20.90;70.17;96491.27;624708;227;68018;-59
2023/06/12 06:17:35;;;;;;;;;;;;;;;20.95;69.98;96489.37;624680;227;64791;-59
2023/06/12 06:20:05;;;;;;;;;;;;;;;20.97;69.61;96489.86;624769;227;62873;-60
2023/06/12 06:22:32;;;;;;;;;;;;;;;20.99;69.69;96490.38;624439;226;65135;-60
2023/06/12 06:25:00;;;;;;;;;;;;;;;21.01;69.61;96488.23;624642;227;67789;-60
2023/06/12 06:27:27;;;;;;;;;;;;;;;21.03;69.40;96488.75;624744;227;62799;-60
2023/06/12 06:29:55;;;;;;;;;;;;;;;21.05;69.53;96486.56;624710;227;67265;-60
2023/06/12 06:32:22;;;;;;;;;;;;;;;21.08;70.86;96492.42;624688;227;64513;-60
2023/06/12 06:34:50;;;;;;;;;;;;;;;21.07;70.32;96496.98;624634;227;62669;-60
2023/06/12 06:37:18;;;;;;;;;;;;;;;21.09;69.52;96499.35;624735;227;64611;-60
2023/06/12 06:39:46;;;;;;;;;;;;;;;21.10;69.49;96500.96;622561;227;64862;-60
2023/06/12 06:42:14;;;;;;;;;;;;;;;21.11;69.48;96499.88;617616;229;65690;-60
2023/06/12 06:44:43;;;;;;;;;;;;;;;21.12;69.39;96501.48;617428;228;46430;-59
2023/06/12 06:47:11;;;;;;;;;;;;;;;21.12;69.45;96493.47;617637;229;67232;-59
2023/06/12 06:49:39;;;;;;;;;;;;;;;21.12;69.40;96494.26;617580;229;65735;-59
2023/06/12 06:52:07;;;;;;;;;;;;;;;21.14;69.42;96493.95;617615;229;65879;-59
2023/06/12 06:54:35;;;;;;;;;;;;;;;21.14;69.43;96494.75;617620;229;67027;-59
2023/06/12 06:57:04;;;;;;;;;;;;;;;21.12;68.75;96494.26;617656;229;64404;-59
2023/06/12 06:59:31;;;;;;;;;;;;;;;21.13;72.92;96503.06;617652;229;67055;-59
2023/06/12 07:01:59;;;;;;;;;;;;;;;21.08;69.38;96495.89;617612;229;67329;-59
2023/06/12 07:04:27;;;;;;;;;;;;;;;21.09;69.58;96483.32;617652;229;65904;-59
2023/06/12 07:06:55;;;;;;;;;;;;;;;21.10;69.54;96490.27;617624;229;67328;-59
2023/06/12 07:09:24;;;;;;;;;;;;;;;21.09;69.71;96488.66;617654;229;67531;-59
2023/06/12 07:11:52;;;;;;;;;;;;;;;21.08;69.65;96487.09;617737;229;65040;-59
2023/06/12 07:14:19;;;;;;;;;;;;;;;21.08;69.68;96489.75;618494;229;66775;-59
2023/06/12 07:16:47;;;;;;;;;;;;;;;21.08;69.76;96482.53;618784;229;66755;-59
2023/06/12 07:19:15;;;;;;;;;;;;;;;21.08;69.78;96481.73;618779;229;65679;-59
2023/06/12 07:21:42;;;;;;;;;;;;;;;21.08;69.83;96485.20;618741;229;65491;-59
2023/06/12 07:24:12;;;;;;;;;;;;;;;21.08;69.86;96485.20;618803;229;64460;-59
2023/06/12 07:26:39;;;;;;;;;;;;;;;21.09;69.88;96477.98;618789;229;62833;-59
2023/06/12 07:29:06;;;;;;;;;;;;;;;21.07;69.92;96480.95;618672;229;66790;-59
2023/06/12 07:31:34;;;;;;;;;;;;;;;21.08;69.94;96476.40;618780;229;66738;-59
2023/06/12 07:34:02;;;;;;;;;;;;;;;21.08;69.97;96471.05;618716;229;65783;-59
2023/06/12 07:36:35;;;;;;;;;;;;;;;21.08;69.97;96477.19;618646;226;64985;-59
2023/06/12 07:39:02;;;;;;;;;;;;;;;21.08;70.02;96471.05;618792;229;67288;-59
2023/06/12 07:41:30;;;;;;;;;;;;;;;21.09;70.07;96472.64;618703;229;65766;-59
2023/06/12 07:43:58;;;;;;;;;;;;;;;21.09;70.08;96475.30;618697;229;68212;-59
2023/06/12 07:46:29;;;;;;;;;;;;;;;21.12;69.03;96474.77;618726;229;67069;-59
2023/06/12 07:48:56;;;;;;;;;;;;;;;21.10;69.45;96474.24;618657;229;65958;-59
2023/06/12 07:51:25;;;;;;;;;;;;;;;21.09;69.40;96470.78;618800;229;67087;-60
2023/06/12 07:53:53;;;;;;;;;;;;;;;21.09;69.61;96478.80;618770;229;67275;-60
2023/06/12 07:56:22;;;;;;;;;;;;;;;21.09;69.78;96475.30;618644;229;65612;-59
2023/06/12 07:58:52;;;;;;;;;;;;;;;21.08;69.89;96471.84;618732;229;67190;-60
2023/06/12 08:01:22;;;;;;;;;;;;;;;21.08;69.94;96468.38;618750;229;65011;-59
2023/06/12 08:03:49;;;;;;;;;;;;;;;21.08;69.98;96471.84;618704;229;65600;-60
2023/06/12 08:06:17;;;;;;;;;;;;;;;21.09;70.06;96467.29;618704;229;67536;-59
2023/06/12 08:08:47;;;;;;;;;;;;;;;21.09;70.08;96468.11;618726;229;64685;-59
2023/06/12 08:11:15;;;;;;;;;;;;;;;21.09;71.07;96464.63;618677;229;65029;-59
2023/06/12 08:13:44;;;;;;;;;;;;;;;21.17;69.40;96469.34;618745;228;43446;-59
2023/06/12 08:16:13;;;;;;;;;;;;;;;21.17;69.03;96469.34;618658;229;66799;-58
2023/06/12 08:18:41;;;;;;;;;;;;;;;21.19;68.62;96467.97;618729;229;66104;-59
2023/06/12 08:21:09;;;;;;;;;;;;;;;21.17;68.43;96464.81;618735;229;67871;-59
2023/06/12 08:23:36;;;;;;;;;;;;;;;21.17;68.78;96463.99;618735;229;67252;-59
2023/06/12 08:26:04;;;;;;;;;;;;;;;21.16;69.42;96465.88;618688;229;65784;-59
2023/06/12 08:28:33;;;;;;;;;;;;;;;21.18;69.71;96458.38;618683;229;67196;-59
2023/06/12 08:31:01;;;;;;;;;;;;;;;21.20;69.48;96460.78;618657;229;67069;-59
2023/06/12 08:33:29;;;;;;;;;;;;;;;21.21;69.80;96460.48;618619;229;65730;-59
2023/06/12 08:36:00;;;;;;;;;;;;;;;21.23;69.94;96457.53;618732;229;67184;-59
2023/06/12 08:38:28;;;;;;;;;;;;;;;21.23;70.20;96462.88;618693;229;67065;-59
2023/06/12 08:40:57;;;;;;;;;;;;;;;21.21;70.22;96457.02;618665;229;65679;-59
2023/06/12 08:43:24;;;;;;;;;;;;;;;21.19;70.69;96453.83;618774;229;67682;-59
2023/06/12 08:45:52;;;;;;;;;;;;;;;21.18;70.73;96454.91;618716;229;66824;-59
2023/06/12 08:48:21;;;;;;;;;;;;;;;21.17;70.57;96446.11;618640;229;65045;-60
2023/06/12 08:50:48;;;;;;;;;;;;;;;21.17;70.67;96450.63;618770;229;67245;-60
2023/06/12 08:53:17;;;;;;;;;;;;;;;21.17;70.70;96453.30;618684;229;67531;-60
2023/06/12 08:55:45;;;;;;;;;;;;;;;21.17;70.41;96463.99;618721;229;64978;-60
2023/06/12 08:58:13;;;;;;;;;;;;;;;21.17;70.63;96459.47;618768;229;67217;-60
2023/06/12 09:00:41;;;;;;;;;;;;;;;21.17;70.28;96462.14;618637;229;65005;-59
2023/06/12 09:03:08;;;;;;;;;;;;;;;21.16;70.81;96462.41;618684;229;62968;-59
2023/06/12 09:05:41;;;;;;;;;;;;;;;21.17;71.08;96463.99;618724;229;65004;-59
2023/06/12 09:08:06;;;;;;;;;;;;;;;21.16;71.28;96462.41;618445;228;64978;-59
2023/06/12 09:10:34;;;;;;;;;;;;;;;21.16;71.49;96463.20;618750;229;65040;-60
2023/06/12 09:13:03;;;;;;;;;;;;;;;21.16;71.67;96462.41;618665;229;66862;-60
2023/06/12 09:15:32;;;;;;;;;;;;;;;21.18;71.21;96460.26;618388;228;66959;-59
2023/06/12 09:17:59;;;;;;;;;;;;;;;21.20;71.32;96463.45;618655;229;62746;-59
2023/06/12 09:20:29;;;;;;;;;;;;;;;21.21;71.68;96465.03;618693;229;65042;-59
2023/06/12 09:23:05;;;;;;;;;;;;;;;21.22;71.69;96455.92;618743;229;64994;-59
2023/06/12 09:25:36;;;;;;;;;;;;;;;21.23;71.61;96458.32;618460;228;62982;-59
2023/06/12 09:28:08;;;;;;;;;;;;;;;21.24;71.67;96453.77;619412;226;65113;-59
2023/06/12 09:30:39;;;;;;;;;;;;;;;21.24;71.84;96453.77;618668;229;66986;-59
2023/06/12 09:33:09;;;;;;;;;;;;;;;21.24;71.97;96449.21;618792;228;44628;-59
2023/06/12 09:35:53;;;;;;;;;;;;;;;21.25;72.00;96450.00;618697;229;65069;-59
2023/06/12 09:38:30;;;;;;;;;;;;;;;21.25;72.04;96464.18;618458;228;64948;-60
2023/06/12 09:40:58;;;;;;;;;;;;;;;21.25;72.19;96456.16;617961;229;65885;-60
2023/06/12 09:43:30;;;;;;;;;;;;;;;21.26;72.16;96467.64;618690;229;67241;-59
2023/06/12 09:45:55;;;;;;;;;;;;;;;21.26;72.14;96470.31;618540;228;65436;-59
2023/06/12 09:48:23;;;;;;;;;;;;;;;21.27;72.07;96475.36;618652;229;65019;-59
2023/06/12 09:50:51;;;;;;;;;;;;;;;21.26;72.21;96478.34;618721;229;67249;-59
2023/06/12 09:53:20;;;;;;;;;;;;;;;21.27;72.31;96472.69;618743;229;65028;-59
2023/06/12 09:55:49;;;;;;;;;;;;;;;21.27;72.20;96463.87;618723;229;65278;-58
2023/06/12 09:58:18;;;;;;;;;;;;;;;21.29;71.48;96467.07;618653;229;65089;-59
2023/06/12 10:00:46;;;;;;;;;;;;;;;21.29;70.85;96462.52;618644;229;66890;-59
2023/06/12 10:03:15;;;;;;;;;;;;;;;21.31;70.48;96459.57;618559;229;65220;-59
2023/06/12 10:05:44;;;;;;;;;;;;;;;21.33;70.35;96464.61;618560;229;67234;-59
2023/06/12 10:08:12;;;;;;;;;;;;;;;21.32;69.76;96458.48;617892;228;65424;-59
2023/06/12 10:10:40;;;;;;;;;;;;;;;21.29;71.17;96464.40;618682;229;64868;-59
2023/06/12 10:13:09;;;;;;;;;;;;;;;21.34;70.40;96469.69;618131;229;67321;-59
2023/06/12 10:15:38;;;;;;;;;;;;;;;21.36;70.59;96474.73;617223;228;48352;-58
2023/06/12 10:18:12;;;;;;;;;;;;;;;21.33;70.15;96470.75;617033;229;62917;-59
2023/06/12 10:20:37;;;;;;;;;;;;;;;21.31;70.69;96470.27;616427;228;64898;-58
2023/06/12 10:23:05;;;;;;;;;;;;;;;21.28;71.16;96465.49;617250;229;67029;-58
2023/06/12 10:25:33;;;;;;;;;;;;;;;21.25;71.16;96461.52;617267;229;65912;-59
2023/06/12 10:28:01;;;;;;;;;;;;;;;21.24;71.70;96459.90;617256;229;66931;-59
2023/06/12 10:30:28;;;;;;;;;;;;;;;21.23;72.10;96458.32;624023;227;67760;-59
2023/06/12 10:32:57;;;;;;;;;;;;;;;21.24;72.25;96461.78;623729;227;62834;-58
2023/06/12 10:35:31;;;;;;;;;;;;;;;21.23;72.35;96462.88;623909;226;65246;-59
2023/06/12 10:37:58;;;;;;;;;;;;;;;21.23;72.60;96462.88;624749;227;64803;-59
2023/06/12 10:40:27;;;;;;;;;;;;;;;21.22;72.61;96466.61;624799;227;62908;-58
2023/06/12 10:42:56;;;;;;;;;;;;;;;21.22;72.63;96466.61;624777;227;67252;-59
2023/06/12 10:45:25;;;;;;;;;;;;;;;21.21;72.57;96459.69;624824;227;67165;-60
2023/06/12 10:48:06;;;;;;;;;;;;;;;21.21;72.58;96462.36;624759;227;65237;-60
2023/06/12 10:50:35;;;;;;;;;;;;;;;21.20;72.82;96461.56;621287;227;64746;-60
2023/06/12 10:53:03;;;;;;;;;;;;;;;21.21;72.83;96459.69;624774;227;65042;-60
2023/06/12 10:55:32;;;;;;;;;;;;;;;21.20;73.05;96458.89;624755;227;63193;-60
2023/06/12 10:58:00;;;;;;;;;;;;;;;21.20;73.19;96474.93;624782;227;67156;-59
2023/06/12 11:00:40;;;;;;;;;;;;;;;21.20;73.18;96479.48;624860;227;67036;-60
2023/06/12 11:03:05;;;;;;;;;;;;;;;21.20;73.16;96480.27;624615;226;62969;-59
2023/06/12 11:05:34;;;;;;;;;;;;;;;21.20;73.16;96480.27;624754;227;64604;-60
2023/06/12 11:08:03;;;;;;;;;;;;;;;21.19;73.25;96477.88;624773;227;67108;-60
2023/06/12 11:10:31;;;;;;;;;;;;;;;21.19;73.26;96486.67;624787;227;62881;-59
2023/06/12 11:12:59;;;;;;;;;;;;;;;21.19;73.36;96489.35;624855;226;67132;-62
2023/06/12 11:15:26;;;;;;;;;;;;;;;21.19;73.69;96499.25;624828;227;66503;-60
2023/06/12 11:17:54;;;;;;;;;;;;;;;21.19;73.84;96491.23;624820;227;64896;-61
2023/06/12 11:20:26;;;;;;;;;;;;;;;21.18;73.87;96495.00;624786;227;64496;-61
2023/06/12 11:22:56;;;;;;;;;;;;;;;21.18;73.76;96497.67;624713;227;65076;-61
2023/06/12 11:25:25;;;;;;;;;;;;;;;21.18;73.66;96486.98;624823;226;64962;-61
2023/06/12 11:27:56;;;;;;;;;;;;;;;21.18;73.62;96489.66;624825;227;66787;-61
2023/06/12 11:30:24;;;;;;;;;;;;;;;21.18;73.68;96492.32;624828;227;66946;-60
2023/06/12 11:32:51;;;;;;;;;;;;;;;21.18;73.68;96495.00;624762;227;65092;-60
2023/06/12 11:35:19;;;;;;;;;;;;;;;21.19;73.70;96493.91;624817;227;66851;-60
2023/06/12 11:37:47;;;;;;;;;;;;;;;21.18;73.65;96485.09;624759;227;66992;-60
2023/06/12 11:40:14;;;;;;;;;;;;;;;21.18;73.70;96492.32;624863;227;63048;-59
2023/06/12 11:42:43;;;;;;;;;;;;;;;21.16;73.83;96484.58;624778;227;66872;-59
2023/06/12 11:45:11;;;;;;;;;;;;;;;21.17;73.93;96477.35;624807;227;67155;-60
2023/06/12 11:47:39;;;;;;;;;;;;;;;21.17;73.76;96482.70;624722;227;65024;-59
2023/06/12 11:50:08;;;;;;;;;;;;;;;21.17;73.78;96475.50;624792;227;65258;-60
2023/06/12 11:52:36;;;;;;;;;;;;;;;21.16;73.91;96476.56;624815;227;67193;-60
2023/06/12 11:55:08;;;;;;;;;;;;;;;21.18;73.63;96476.30;624764;227;62901;-60
2023/06/12 11:57:36;;;;;;;;;;;;;;;21.17;73.29;96478.17;624781;227;67195;-61
2023/06/12 12:00:09;;;;;;;;;;;;;;;21.18;73.28;96468.27;624742;227;66961;-59
2023/06/12 12:02:42;;;;;;;;;;;;;;;21.19;73.28;96472.53;624744;226;47435;-59
2023/06/12 12:05:08;;;;;;;;;;;;;;;21.19;73.27;96477.88;624643;226;64926;-61
2023/06/12 12:07:39;;;;;;;;;;;;;;;21.19;73.23;96477.88;624816;227;65066;-59
2023/06/12 12:10:08;;;;;;;;;;;;;;;21.19;73.20;96475.20;624774;227;65093;-59
2023/06/12 12:12:51;;;;;;;;;;;;;;;21.18;73.39;96465.61;624687;226;67315;-59
2023/06/12 12:15:20;;;;;;;;;;;;;;;21.18;73.54;96461.05;624807;227;65055;-59
2023/06/12 12:17:48;;;;;;;;;;;;;;;21.18;73.55;96461.05;624700;227;65124;-59
2023/06/12 12:20:17;;;;;;;;;;;;;;;21.18;73.50;96462.93;624815;227;67163;-59
2023/06/12 12:22:46;;;;;;;;;;;;;;;21.18;73.47;96463.72;624812;227;67031;-59
2023/06/12 12:25:18;;;;;;;;;;;;;;;21.19;73.42;96459.16;623997;227;64945;-59
2023/06/12 12:27:46;;;;;;;;;;;;;;;21.18;73.47;96461.05;624558;227;67269;-59
2023/06/12 12:30:16;;;;;;;;;;;;;;;21.19;73.56;96461.84;624767;227;64661;-59
2023/06/12 12:32:45;;;;;;;;;;;;;;;21.19;73.50;96472.53;624739;227;62971;-59
2023/06/12 12:35:13;;;;;;;;;;;;;;;21.19;73.48;96469.85;624797;227;64836;-59
2023/06/12 12:37:41;;;;;;;;;;;;;;;21.19;73.40;96469.85;624705;227;67295;-59
2023/06/12 12:40:10;;;;;;;;;;;;;;;21.18;73.37;96470.95;624759;227;65042;-59
2023/06/12 12:42:38;;;;;;;;;;;;;;;21.18;73.39;96468.27;624772;227;67223;-59
2023/06/12 12:45:06;;;;;;;;;;;;;;;21.19;73.38;96464.52;624786;227;64852;-60
2023/06/12 12:47:34;;;;;;;;;;;;;;;21.22;72.81;96461.27;624835;227;62908;-59
2023/06/12 12:50:03;;;;;;;;;;;;;;;21.24;73.40;96467.13;624713;227;67217;-59
2023/06/12 12:52:31;;;;;;;;;;;;;;;21.25;72.21;96460.69;624765;227;66759;-59
2023/06/12 12:54:59;;;;;;;;;;;;;;;21.27;72.79;96459.33;624744;227;65108;-59